Time;durP1;ratioP1;P1;durP2;ratioP2;P2;SDS_P1;SDS_P2;PMS_P1;PMS_P2;Temp;Humidity;BMP_temperature;BMP_pressure;BME280_temperature;BME280_humidity;BME280_pressure;Samples;Min_cycle;Max_cycle;Signal;HPM_P1;HPM_P2
2022/04/25 00:01:14;;;;;;;;;;;;;;;;;;2224877;58;1249;-73
2022/04/25 00:03:50;;;;;;;;;;;;;;;;;;2224213;58;1939;-73
2022/04/25 00:06:23;;;;;;;;;;;;;;;;;;2223816;66;1227;-73
2022/04/25 00:08:56;;;;;;;;;;;;;;;;;;2221964;66;1185;-73
2022/04/25 00:11:29;;;;;;;;;;;;;;;;;;2221566;58;1570;-73
2022/04/25 00:14:04;;;;;;;;;;;;;;;;;;2223941;58;1686;-73
2022/04/25 00:16:37;;;;;;;;;;;;;;;;;;2223242;66;1237;-73
2022/04/25 00:19:13;;;;;;;;;;;;;;;;;;2223444;58;1258;-73
2022/04/25 00:21:46;;;;;;;;;;;;;;;;;;2222196;58;1578;-73
2022/04/25 00:24:19;;;;;;;;;;;;;;;;;;2223671;58;1940;-73
2022/04/25 00:26:52;;;;;;;;;;;;;;;;;;2221006;66;1195;-73
2022/04/25 00:29:25;;;;;;;;;;;;;;;;;;2226046;58;1310;-73
2022/04/25 00:31:58;;;;;;;;;;;;;;;;;;2223291;58;1272;-73
2022/04/25 00:34:34;;;;;;;;;;;;;;;;;;2224182;66;1109;-72
2022/04/25 00:37:07;;;;;;;;;;;;;;;;;;2223167;58;2087;-73
2022/04/25 00:39:41;;;;;;;;;;;;;;;;;;2224181;66;1147;-73
2022/04/25 00:42:14;;;;;;;;;;;;;;;;;;2225523;58;1709;-73
2022/04/25 00:44:47;;;;;;;;;;;;;;;;;;2223605;66;1992;-72
2022/04/25 00:47:21;;;;;;;;;;;;;;;;;;2222129;59;1202;-73
2022/04/25 00:49:56;;;;;;;;;;;;;;;;;;2223026;66;1222;-73
2022/04/25 00:52:30;;;;;;;;;;;;;;;;;;2222686;66;1294;-73
2022/04/25 00:55:03;;;;;;;;;;;;;;;;;;2220932;58;2890;-73
2022/04/25 00:57:37;;;;;;;;;;;;;;;;;;2221026;59;1201;-73
2022/04/25 01:00:11;;;;;;;;;;;;;;;;;;2223442;58;1517;-73
2022/04/25 01:02:45;;;;;;;;;;;;;;;;;;2223183;53;2095;-68
2022/04/25 01:05:23;;;;;;;;;;;;;;;;;;2216715;59;1939;-69
2022/04/25 01:07:57;;;;;;;;;;;;;;;;;;2212298;58;1343;-68
2022/04/25 01:10:30;;;;;;;;;;;;;;;;;;2216828;66;1216;-68
2022/04/25 01:13:03;;;;;;;;;;;;;;;;;;2216243;58;1256;-68
2022/04/25 01:15:37;;;;;;;;;;;;;;;;;;2216612;59;1621;-68
2022/04/25 01:18:10;;;;;;;;;;;;;;;;;;2218050;58;1757;-69
2022/04/25 01:20:46;;;;;;;;;;;;;;;;;;2216294;58;1143;-68
2022/04/25 01:29:01;;;;;;;;;;;;;;;;;;2217131;58;1275;-68
2022/04/25 01:31:35;;;;;;;;;;;;;;;;;;2216028;58;1287;-68
2022/04/25 01:34:08;;;;;;;;;;;;;;;;;;2216770;59;1271;-68
2022/04/25 01:36:41;;;;;;;;;;;;;;;;;;2215667;58;1176;-68
2022/04/25 01:39:17;;;;;;;;;;;;;;;;;;2216163;66;1080;-68
2022/04/25 01:41:50;;;;;;;;;;;;;;;;;;2216386;66;1133;-68
2022/04/25 01:44:23;;;;;;;;;;;;;;;;;;2216211;58;2135;-68
2022/04/25 01:46:56;;;;;;;;;;;;;;;;;;2218075;59;1177;-68
2022/04/25 01:49:30;;;;;;;;;;;;;;;;;;2217859;59;1644;-68
2022/04/25 01:52:04;;;;;;;;;;;;;;;;;;2217759;66;1218;-68
2022/04/25 01:54:40;;;;;;;;;;;;;;;;;;2216084;58;2832;-68
2022/04/25 01:57:13;;;;;;;;;;;;;;;;;;2216468;59;2629;-68
2022/04/25 01:59:47;;;;;;;;;;;;;;;;;;2216705;66;1091;-69
2022/04/25 02:02:22;;;;;;;;;;;;;;;;;;2217806;58;1917;-68
2022/04/25 02:04:55;;;;;;;;;;;;;;;;;;2216631;66;1936;-68
2022/04/25 02:07:28;;;;;;;;;;;;;;;;;;2218330;66;1132;-68
2022/04/25 02:10:05;;;;;;;;;;;;;;;;;;2217051;66;1204;-68
2022/04/25 02:12:38;;;;;;;;;;;;;;;;;;2215647;59;1429;-69
2022/04/25 02:15:13;;;;;;;;;;;;;;;;;;2216689;66;1285;-69
2022/04/25 02:17:46;;;;;;;;;;;;;;;;;;2217628;59;1212;-68
2022/04/25 02:20:20;;;;;;;;;;;;;;;;;;2217690;66;1207;-69
2022/04/25 02:22:53;;;;;;;;;;;;;;;;;;2215744;58;1952;-68
2022/04/25 02:25:29;;;;;;;;;;;;;;;;;;2216917;59;1944;-69
2022/04/25 02:28:02;;;;;;;;;;;;;;;;;;2217277;66;1205;-69
2022/04/25 02:30:36;;;;;;;;;;;;;;;;;;2217900;58;1264;-69
2022/04/25 02:33:09;;;;;;;;;;;;;;;;;;2218572;58;2077;-69
2022/04/25 02:35:42;;;;;;;;;;;;;;;;;;2217334;59;1120;-69
2022/04/25 02:38:15;;;;;;;;;;;;;;;;;;2218192;58;1174;-69
2022/04/25 02:41:04;;;;;;;;;;;;;;;;;;2217767;66;1059;-69
2022/04/25 02:43:39;;;;;;;;;;;;;;;;;;2217124;58;1992;-69
2022/04/25 02:46:13;;;;;;;;;;;;;;;;;;2217641;66;1086;-69
2022/04/25 02:48:48;;;;;;;;;;;;;;;;;;2218070;58;1282;-69
2022/04/25 02:51:21;;;;;;;;;;;;;;;;;;2217789;66;1104;-69
2022/04/25 02:53:55;;;;;;;;;;;;;;;;;;2217488;66;1378;-69
2022/04/25 02:56:31;;;;;;;;;;;;;;;;;;2212840;59;2995;-69
2022/04/25 02:59:06;;;;;;;;;;;;;;;;;;2215522;59;2683;-69
2022/04/25 03:01:40;;;;;;;;;;;;;;;;;;2217203;66;1089;-69
2022/04/25 03:04:13;;;;;;;;;;;;;;;;;;2215670;58;2008;-69
2022/04/25 03:06:46;;;;;;;;;;;;;;;;;;2217549;59;1199;-69
2022/04/25 03:09:20;;;;;;;;;;;;;;;;;;2216641;66;1219;-69
2022/04/25 03:11:57;;;;;;;;;;;;;;;;;;2216728;58;1201;-69
2022/04/25 03:14:31;;;;;;;;;;;;;;;;;;2216295;66;1234;-69
2022/04/25 03:17:04;;;;;;;;;;;;;;;;;;2217286;66;1100;-69
2022/04/25 03:19:37;;;;;;;;;;;;;;;;;;2217630;66;1108;-69
2022/04/25 03:22:11;;;;;;;;;;;;;;;;;;2217283;58;1801;-69
2022/04/25 03:24:44;;;;;;;;;;;;;;;;;;2217094;66;1908;-69
2022/04/25 03:27:20;;;;;;;;;;;;;;;;;;2216194;66;1060;-69
2022/04/25 03:29:53;;;;;;;;;;;;;;;;;;2217975;58;1267;-69
2022/04/25 03:32:26;;;;;;;;;;;;;;;;;;2218976;66;1282;-69
2022/04/25 03:34:59;;;;;;;;;;;;;;;;;;2218006;58;1743;-69
2022/04/25 03:37:35;;;;;;;;;;;;;;;;;;2216957;59;1070;-69
2022/04/25 03:40:09;;;;;;;;;;;;;;;;;;2217154;66;1199;-69
2022/04/25 03:42:46;;;;;;;;;;;;;;;;;;2217752;58;1818;-70
2022/04/25 03:45:20;;;;;;;;;;;;;;;;;;2217698;59;1981;-69
2022/04/25 03:47:53;;;;;;;;;;;;;;;;;;2217849;59;1301;-69
2022/04/25 03:50:26;;;;;;;;;;;;;;;;;;2215846;66;1172;-69
2022/04/25 03:53:00;;;;;;;;;;;;;;;;;;2218616;66;1158;-69
2022/04/25 03:58:24;;;;;;;;;;;;;;;;;;2215226;59;2616;-69
2022/04/25 04:00:58;;;;;;;;;;;;;;;;;;2211923;66;1195;-70
2022/04/25 04:03:32;;;;;;;;;;;;;;;;;;2217172;58;1994;-69
2022/04/25 04:06:05;;;;;;;;;;;;;;;;;;2217236;66;1923;-69
2022/04/25 04:08:39;;;;;;;;;;;;;;;;;;2218008;58;1747;-69
2022/04/25 04:11:12;;;;;;;;;;;;;;;;;;2216779;66;1196;-69
2022/04/25 04:13:48;;;;;;;;;;;;;;;;;;2217008;58;1340;-69
2022/04/25 04:16:21;;;;;;;;;;;;;;;;;;2217600;66;1236;-69
2022/04/25 04:18:54;;;;;;;;;;;;;;;;;;2216520;66;1183;-70
2022/04/25 04:21:27;;;;;;;;;;;;;;;;;;2216579;66;1062;-69
2022/04/25 04:24:01;;;;;;;;;;;;;;;;;;2216885;58;1976;-69
2022/04/25 04:26:34;;;;;;;;;;;;;;;;;;2215910;66;1095;-70
2022/04/25 04:29:10;;;;;;;;;;;;;;;;;;2217398;58;1537;-69
2022/04/25 04:31:46;;;;;;;;;;;;;;;;;;2216748;66;1203;-70
2022/04/25 04:34:19;;;;;;;;;;;;;;;;;;2216290;59;1234;-70
2022/04/25 04:36:52;;;;;;;;;;;;;;;;;;2218224;66;1253;-70
2022/04/25 04:39:25;;;;;;;;;;;;;;;;;;2216341;66;1152;-69
2022/04/25 04:41:59;;;;;;;;;;;;;;;;;;2216128;66;1289;-70
2022/04/25 04:44:36;;;;;;;;;;;;;;;;;;2215977;58;1935;-70
2022/04/25 04:47:09;;;;;;;;;;;;;;;;;;2216472;58;1311;-70
2022/04/25 04:49:42;;;;;;;;;;;;;;;;;;2217700;66;1216;-69
2022/04/25 04:52:15;;;;;;;;;;;;;;;;;;2217325;66;1251;-69
2022/04/25 04:54:49;;;;;;;;;;;;;;;;;;2217585;66;1072;-70
2022/04/25 04:57:22;;;;;;;;;;;;;;;;;;2216980;66;2598;-69
2022/04/25 04:59:58;;;;;;;;;;;;;;;;;;2216573;59;2527;-70
2022/04/25 05:02:31;;;;;;;;;;;;;;;;;;2216510;58;1721;-69
2022/04/25 05:05:05;;;;;;;;;;;;;;;;;;2217458;58;1989;-69
2022/04/25 05:07:38;;;;;;;;;;;;;;;;;;2216730;59;1089;-69
2022/04/25 05:10:12;;;;;;;;;;;;;;;;;;2217898;58;2321;-69
2022/04/25 05:12:49;;;;;;;;;;;;;;;;;;2216670;58;1921;-70
2022/04/25 05:15:26;;;;;;;;;;;;;;;;;;2216762;58;1695;-70
2022/04/25 05:18:00;;;;;;;;;;;;;;;;;;2216835;66;993;-69
2022/04/25 05:20:34;;;;;;;;;;;;;;;;;;2217884;66;1109;-70
2022/04/25 05:23:10;;;;;;;;;;;;;;;;;;2216573;58;1560;-69
2022/04/25 05:25:43;;;;;;;;;;;;;;;;;;2216859;59;1935;-69
2022/04/25 05:28:16;;;;;;;;;;;;;;;;;;2217616;66;1101;-69
2022/04/25 05:30:52;;;;;;;;;;;;;;;;;;2217004;66;1294;-69
2022/04/25 05:33:25;;;;;;;;;;;;;;;;;;2218063;66;1203;-69
2022/04/25 05:35:58;;;;;;;;;;;;;;;;;;2217602;66;1162;-69
2022/04/25 05:38:32;;;;;;;;;;;;;;;;;;2216053;66;1051;-69
2022/04/25 05:41:07;;;;;;;;;;;;;;;;;;2217546;66;1200;-70
2022/04/25 05:43:40;;;;;;;;;;;;;;;;;;2216416;58;1920;-69
2022/04/25 05:46:16;;;;;;;;;;;;;;;;;;2217738;59;1975;-69
2022/04/25 05:54:27;;;;;;;;;;;;;;;;;;2217053;66;1224;-70
2022/04/25 05:57:01;;;;;;;;;;;;;;;;;;2216402;66;1090;-70
2022/04/25 05:59:34;;;;;;;;;;;;;;;;;;2215389;59;2803;-70
2022/04/25 06:02:10;;;;;;;;;;;;;;;;;;2215511;58;1612;-70
2022/04/25 06:04:43;;;;;;;;;;;;;;;;;;2216523;66;1940;-70
2022/04/25 06:07:16;;;;;;;;;;;;;;;;;;2216918;66;1093;-70
2022/04/25 06:09:49;;;;;;;;;;;;;;;;;;2213566;67;1402;-70
2022/04/25 06:12:22;;;;;;;;;;;;;;;;;;2217705;58;1301;-70
2022/04/25 06:14:56;;;;;;;;;;;;;;;;;;2216585;66;1049;-70
2022/04/25 06:17:31;;;;;;;;;;;;;;;;;;2217284;66;1200;-70
2022/04/25 06:20:05;;;;;;;;;;;;;;;;;;2217191;66;1132;-70
2022/04/25 06:22:39;;;;;;;;;;;;;;;;;;2216693;58;1770;-70
2022/04/25 06:25:12;;;;;;;;;;;;;;;;;;2217988;66;1937;-70
2022/04/25 06:27:45;;;;;;;;;;;;;;;;;;2214059;66;1886;-70
2022/04/25 06:30:23;;;;;;;;;;;;;;;;;;2218284;58;1323;-70
2022/04/25 06:32:59;;;;;;;;;;;;;;;;;;2217673;66;1212;-70
2022/04/25 06:35:33;;;;;;;;;;;;;;;;;;2218128;58;1826;-70
2022/04/25 06:38:06;;;;;;;;;;;;;;;;;;2216814;58;2099;-70
2022/04/25 06:40:39;;;;;;;;;;;;;;;;;;2216247;66;1246;-70
2022/04/25 06:43:13;;;;;;;;;;;;;;;;;;2217027;58;1766;-70
2022/04/25 06:45:46;;;;;;;;;;;;;;;;;;2216791;58;1924;-70
2022/04/25 06:48:22;;;;;;;;;;;;;;;;;;2216036;58;1317;-70
2022/04/25 06:50:56;;;;;;;;;;;;;;;;;;2217352;66;1215;-70
2022/04/25 06:53:29;;;;;;;;;;;;;;;;;;2216380;66;1299;-70
2022/04/25 06:56:02;;;;;;;;;;;;;;;;;;2217353;66;1169;-70
2022/04/25 06:58:35;;;;;;;;;;;;;;;;;;2216429;66;1324;-70
2022/04/25 07:01:09;;;;;;;;;;;;;;;;;;2216683;59;2625;-70
2022/04/25 07:03:45;;;;;;;;;;;;;;;;;;2215260;53;3520;-76
2022/04/25 07:06:18;;;;;;;;;;;;;;;;;;2213521;59;1918;-76
2022/04/25 07:08:52;;;;;;;;;;;;;;;;;;2215070;59;1484;-75
2022/04/25 07:11:25;;;;;;;;;;;;;;;;;;2213925;59;1624;-75
2022/04/25 07:13:58;;;;;;;;;;;;;;;;;;2214251;59;2084;-75
2022/04/25 07:16:31;;;;;;;;;;;;;;;;;;2213331;59;1239;-75
2022/04/25 07:19:07;;;;;;;;;;;;;;;;;;2213813;59;1321;-75
2022/04/25 07:30:07;;;;;;;;;;;;;;;;;;2214127;59;1395;-75
2022/04/25 07:32:41;;;;;;;;;;;;;;;;;;2213082;67;1233;-74
2022/04/25 07:35:18;;;;;;;;;;;;;;;;;;2214459;59;1920;-74
2022/04/25 07:37:51;;;;;;;;;;;;;;;;;;2211200;59;1092;-74
2022/04/25 07:40:24;;;;;;;;;;;;;;;;;;2213601;59;1236;-74
2022/04/25 07:42:58;;;;;;;;;;;;;;;;;;2213572;59;1845;-74
2022/04/25 07:45:32;;;;;;;;;;;;;;;;;;2214260;67;1933;-74
2022/04/25 07:48:06;;;;;;;;;;;;;;;;;;2216392;59;1239;-74
2022/04/25 07:50:44;;;;;;;;;;;;;;;;;;2214391;59;1838;-74
2022/04/25 07:53:17;;;;;;;;;;;;;;;;;;2214277;67;1226;-74
2022/04/25 07:55:50;;;;;;;;;;;;;;;;;;2212239;59;1475;-74
2022/04/25 07:58:23;;;;;;;;;;;;;;;;;;2211152;67;1118;-74
2022/04/25 08:00:56;;;;;;;;;;;;;;;;;;2212572;59;2615;-74
2022/04/25 08:03:30;;;;;;;;;;;;;;;;;;2211860;58;2272;-74
2022/04/25 08:06:06;;;;;;;;;;;;;;;;;;2213288;59;1978;-75
2022/04/25 08:08:39;;;;;;;;;;;;;;;;;;2213421;59;2334;-74
2022/04/25 08:11:13;;;;;;;;;;;;;;;;;;2213937;59;1265;-75
2022/04/25 08:19:23;;;;;;;;;;;;;;;;;;2214273;59;1181;-75
2022/04/25 08:22:00;;;;;;;;;;;;;;;;;;2214270;67;1098;-74
2022/04/25 08:24:33;;;;;;;;;;;;;;;;;;2213034;59;1626;-74
2022/04/25 08:27:06;;;;;;;;;;;;;;;;;;2213748;59;2011;-75
2022/04/25 08:29:39;;;;;;;;;;;;;;;;;;2212663;59;1279;-75
2022/04/25 08:32:13;;;;;;;;;;;;;;;;;;2213267;67;1260;-74
2022/04/25 08:34:46;;;;;;;;;;;;;;;;;;2212986;59;1056;-75
2022/04/25 08:37:22;;;;;;;;;;;;;;;;;;2213885;59;1225;-74
2022/04/25 08:39:55;;;;;;;;;;;;;;;;;;2213711;67;1167;-74
2022/04/25 08:42:29;;;;;;;;;;;;;;;;;;2212177;59;1518;-74
2022/04/25 08:45:05;;;;;;;;;;;;;;;;;;2213680;67;1150;-74
2022/04/25 08:47:42;;;;;;;;;;;;;;;;;;2214476;59;1923;-74
2022/04/25 08:50:16;;;;;;;;;;;;;;;;;;2211791;59;1765;-74
2022/04/25 08:52:52;;;;;;;;;;;;;;;;;;2213024;59;1161;-74
2022/04/25 08:55:26;;;;;;;;;;;;;;;;;;2212548;59;1124;-74
2022/04/25 08:58:01;;;;;;;;;;;;;;;;;;2211755;59;1279;-74
2022/04/25 09:00:35;;;;;;;;;;;;;;;;;;2213510;67;1118;-74
2022/04/25 09:03:08;;;;;;;;;;;;;;;;;;2211723;58;2579;-74
2022/04/25 09:05:42;;;;;;;;;;;;;;;;;;2212514;59;2025;-74
2022/04/25 09:08:17;;;;;;;;;;;;;;;;;;2212477;67;1253;-74
2022/04/25 09:12:09;;;;;;;;;;;;;;;;;;2213050;59;1887;-74
2022/04/25 09:13:45;;;;;;;;;;;;;;;;;;2214074;67;1199;-74
2022/04/25 09:16:19;;;;;;;;;;;;;;;;;;2212223;67;1180;-74
2022/04/25 09:18:52;;;;;;;;;;;;;;;;;;2212119;67;1152;-74
2022/04/25 09:21:26;;;;;;;;;;;;;;;;;;2212866;67;1289;-74
2022/04/25 09:24:02;;;;;;;;;;;;;;;;;;2212750;59;1742;-74
2022/04/25 09:26:36;;;;;;;;;;;;;;;;;;2212232;59;2005;-75
2022/04/25 09:29:09;;;;;;;;;;;;;;;;;;2212634;59;1218;-75
2022/04/25 09:31:49;;;;;;;;;;;;;;;;;;2211285;59;1020;-75
2022/04/25 09:34:59;;;;;;;;;;;;;;;;;;2212099;67;1219;-74
2022/04/25 09:37:15;;;;;;;;;;;;;;;;;;2211066;59;2205;-75
2022/04/25 09:39:51;;;;;;;;;;;;;;;;;;2211929;67;1208;-75
2022/04/25 09:42:30;;;;;;;;;;;;;;;;;;2212159;59;1776;-75
2022/04/25 09:45:03;;;;;;;;;;;;;;;;;;2212508;59;1267;-76
2022/04/25 09:47:37;;;;;;;;;;;;;;;;;;2213956;59;1937;-75
2022/04/25 09:50:11;;;;;;;;;;;;;;;;;;2212150;67;1196;-75
2022/04/25 09:52:54;;;;;;;;;;;;;;;;;;2212731;59;1628;-75
2022/04/25 09:55:31;;;;;;;;;;;;;;;;;;2212819;59;1063;-75
2022/04/25 09:58:17;;;;;;;;;;;;;;;;;;2212708;59;1202;-75
2022/04/25 10:00:53;;;;;;;;;;;;;;;;;;2212861;67;1306;-76
2022/04/25 10:03:35;;;;;;;;;;;;;;;;;;2211380;59;2554;-76
2022/04/25 10:06:08;;;;;;;;;;;;;;;;;;2210988;67;1921;-75
2022/04/25 10:08:41;;;;;;;;;;;;;;;;;;2211667;67;1242;-76
2022/04/25 10:11:18;;;;;;;;;;;;;;;;;;2212909;67;1212;-76
2022/04/25 10:13:52;;;;;;;;;;;;;;;;;;2212034;59;1276;-76
2022/04/25 10:16:28;;;;;;;;;;;;;;;;;;2212588;59;1235;-75
2022/04/25 10:19:01;;;;;;;;;;;;;;;;;;2212289;67;1232;-76
2022/04/25 10:21:36;;;;;;;;;;;;;;;;;;2212432;59;1756;-76
2022/04/25 10:24:09;;;;;;;;;;;;;;;;;;2211313;59;1821;-75
2022/04/25 10:26:46;;;;;;;;;;;;;;;;;;2210974;67;1990;-76
2022/04/25 10:29:21;;;;;;;;;;;;;;;;;;2211423;59;1255;-75
2022/04/25 10:31:58;;;;;;;;;;;;;;;;;;2212257;59;1232;-75
2022/04/25 10:34:46;;;;;;;;;;;;;;;;;;2212202;67;1196;-75
2022/04/25 10:37:32;;;;;;;;;;;;;;;;;;2213192;59;1263;-75
2022/04/25 10:40:07;;;;;;;;;;;;;;;;;;2213456;59;1287;-75
2022/04/25 10:45:56;;;;;;;;;;;;;;;;;;2210839;59;1284;-76
2022/04/25 10:48:30;;;;;;;;;;;;;;;;;;2213038;59;1932;-76
2022/04/25 10:51:09;;;;;;;;;;;;;;;;;;2212817;59;1234;-76
2022/04/25 10:54:02;;;;;;;;;;;;;;;;;;2212661;59;1804;-75
2022/04/25 10:56:35;;;;;;;;;;;;;;;;;;2212426;59;3530;-76
2022/04/25 10:59:27;;;;;;;;;;;;;;;;;;2211819;59;1685;-75
2022/04/25 11:02:00;;;;;;;;;;;;;;;;;;2213550;67;1156;-75
2022/04/25 11:04:33;;;;;;;;;;;;;;;;;;2212135;58;2444;-75
2022/04/25 11:07:23;;;;;;;;;;;;;;;;;;2212124;59;2778;-76
2022/04/25 11:09:57;;;;;;;;;;;;;;;;;;2213318;59;1752;-75
2022/04/25 11:12:45;;;;;;;;;;;;;;;;;;2213048;59;1353;-75
2022/04/25 11:15:40;;;;;;;;;;;;;;;;;;2210238;59;1965;-75
2022/04/25 11:18:24;;;;;;;;;;;;;;;;;;2213075;59;1666;-75
2022/04/25 11:20:58;;;;;;;;;;;;;;;;;;2213208;59;1995;-75
2022/04/25 11:23:31;;;;;;;;;;;;;;;;;;2211475;59;1961;-75
2022/04/25 11:26:05;;;;;;;;;;;;;;;;;;2212987;60;1191;-75
2022/04/25 11:29:04;;;;;;;;;;;;;;;;;;2212797;67;1933;-74
2022/04/25 11:31:40;;;;;;;;;;;;;;;;;;2212766;67;1100;-75
2022/04/25 11:34:14;;;;;;;;;;;;;;;;;;2211642;59;1197;-75
2022/04/25 11:36:47;;;;;;;;;;;;;;;;;;2213334;67;1067;-75
2022/04/25 11:42:12;;;;;;;;;;;;;;;;;;2212122;59;1619;-75
2022/04/25 11:44:46;;;;;;;;;;;;;;;;;;2208097;59;1983;-75
2022/04/25 11:47:23;;;;;;;;;;;;;;;;;;2207837;59;1980;-75
2022/04/25 11:49:57;;;;;;;;;;;;;;;;;;2213863;67;1191;-75
2022/04/25 11:52:31;;;;;;;;;;;;;;;;;;2213473;59;1254;-74
2022/04/25 11:55:04;;;;;;;;;;;;;;;;;;2213462;67;1219;-74
2022/04/25 11:57:42;;;;;;;;;;;;;;;;;;2212873;67;1244;-75
2022/04/25 12:00:17;;;;;;;;;;;;;;;;;;2213113;67;1250;-75
2022/04/25 12:02:53;;;;;;;;;;;;;;;;;;2213012;59;1858;-74
2022/04/25 12:05:27;;;;;;;;;;;;;;;;;;2212519;59;2420;-74
2022/04/25 12:16:37;;;;;;;;;;;;;;;;;;2213013;59;1848;-74
2022/04/25 12:19:13;;;;;;;;;;;;;;;;;;2212421;59;1921;-74
2022/04/25 12:21:48;;;;;;;;;;;;;;;;;;2211297;59;2280;-74
2022/04/25 12:24:23;;;;;;;;;;;;;;;;;;2211489;59;1616;-74
2022/04/25 12:26:56;;;;;;;;;;;;;;;;;;2213000;59;1985;-74
2022/04/25 12:29:29;;;;;;;;;;;;;;;;;;2212506;59;1429;-75
2022/04/25 12:32:03;;;;;;;;;;;;;;;;;;2213157;59;1617;-74
2022/04/25 12:34:39;;;;;;;;;;;;;;;;;;2211607;59;1666;-75
2022/04/25 12:37:13;;;;;;;;;;;;;;;;;;2213192;67;1109;-74
2022/04/25 12:40:01;;;;;;;;;;;;;;;;;;2212368;67;1218;-75
2022/04/25 12:42:50;;;;;;;;;;;;;;;;;;2212211;59;1698;-76
2022/04/25 12:45:23;;;;;;;;;;;;;;;;;;2212710;67;1310;-74
2022/04/25 12:47:58;;;;;;;;;;;;;;;;;;2211666;59;1928;-73
2022/04/25 12:50:47;;;;;;;;;;;;;;;;;;2213125;59;1187;-73
2022/04/25 12:53:39;;;;;;;;;;;;;;;;;;2212883;67;1281;-74
2022/04/25 12:56:15;;;;;;;;;;;;;;;;;;2213815;67;1141;-74
2022/04/25 12:58:50;;;;;;;;;;;;;;;;;;2213539;59;1303;-74
2022/04/25 13:01:30;;;;;;;;;;;;;;;;;;2209058;67;1816;-74
2022/04/25 13:04:07;;;;;;;;;;;;;;;;;;2216892;53;1990;-74
2022/04/25 13:06:43;;;;;;;;;;;;;;;;;;2215749;59;2457;-72
2022/04/25 13:09:17;;;;;;;;;;;;;;;;;;2213792;58;1975;-73
2022/04/25 13:11:50;;;;;;;;;;;;;;;;;;2213410;58;1709;-73
2022/04/25 13:14:23;;;;;;;;;;;;;;;;;;2219137;58;1555;-73
2022/04/25 13:16:56;;;;;;;;;;;;;;;;;;2220706;59;1215;-73
2022/04/25 13:19:29;;;;;;;;;;;;;;;;;;2219072;58;1867;-73
2022/04/25 13:22:05;;;;;;;;;;;;;;;;;;2221589;66;1036;-71
2022/04/25 13:24:38;;;;;;;;;;;;;;;;;;2220202;58;1777;-72
2022/04/25 13:27:12;;;;;;;;;;;;;;;;;;2219774;58;1927;-72
2022/04/25 13:29:45;;;;;;;;;;;;;;;;;;2218579;59;1377;-73
2022/04/25 13:32:18;;;;;;;;;;;;;;;;;;2221348;58;1604;-73
2022/04/25 13:34:51;;;;;;;;;;;;;;;;;;2219962;58;1329;-72
2022/04/25 13:37:29;;;;;;;;;;;;;;;;;;2221416;58;1511;-73
2022/04/25 13:40:02;;;;;;;;;;;;;;;;;;2219913;66;1061;-73
2022/04/25 13:42:36;;;;;;;;;;;;;;;;;;2218324;58;1852;-73
2022/04/25 13:45:11;;;;;;;;;;;;;;;;;;2221052;58;1602;-73
2022/04/25 13:47:45;;;;;;;;;;;;;;;;;;2220377;66;1931;-73
2022/04/25 13:50:18;;;;;;;;;;;;;;;;;;2218971;66;1211;-73
2022/04/25 13:52:54;;;;;;;;;;;;;;;;;;2220891;59;1233;-73
2022/04/25 13:55:29;;;;;;;;;;;;;;;;;;2220138;58;1760;-72
2022/04/25 13:58:04;;;;;;;;;;;;;;;;;;2221213;58;1647;-72
2022/04/25 14:00:37;;;;;;;;;;;;;;;;;;2220958;58;1803;-72
2022/04/25 14:03:11;;;;;;;;;;;;;;;;;;2221400;58;1951;-73
2022/04/25 14:05:45;;;;;;;;;;;;;;;;;;2219417;58;2675;-73
2022/04/25 14:08:22;;;;;;;;;;;;;;;;;;2219162;58;2609;-73
2022/04/25 14:10:55;;;;;;;;;;;;;;;;;;2219817;58;1096;-73
2022/04/25 14:13:30;;;;;;;;;;;;;;;;;;2220399;66;1287;-73
2022/04/25 14:16:04;;;;;;;;;;;;;;;;;;2223063;58;1235;-73
2022/04/25 14:18:37;;;;;;;;;;;;;;;;;;2220664;58;1710;-73
2022/04/25 14:21:10;;;;;;;;;;;;;;;;;;2221609;58;1674;-73
2022/04/25 14:23:46;;;;;;;;;;;;;;;;;;2220958;58;1975;-73
2022/04/25 14:26:20;;;;;;;;;;;;;;;;;;2221073;66;1175;-73
2022/04/25 14:28:54;;;;;;;;;;;;;;;;;;2219468;58;1939;-73
2022/04/25 14:31:27;;;;;;;;;;;;;;;;;;2222220;58;1257;-73
2022/04/25 14:34:00;;;;;;;;;;;;;;;;;;2221092;58;1991;-74
2022/04/25 14:36:33;;;;;;;;;;;;;;;;;;2220454;58;1801;-73
2022/04/25 14:39:09;;;;;;;;;;;;;;;;;;2221551;58;1971;-73
2022/04/25 14:41:42;;;;;;;;;;;;;;;;;;2222795;66;1057;-73
2022/04/25 14:44:15;;;;;;;;;;;;;;;;;;2221196;58;2106;-72
2022/04/25 14:46:48;;;;;;;;;;;;;;;;;;2221452;58;1981;-73
2022/04/25 14:54:20;;;;;;;;;;;;;;;;;;2222195;58;1932;-73
2022/04/25 14:55:07;;;;;;;;;;;;;;;;;;2221003;66;1514;-73
2022/04/25 14:57:40;;;;;;;;;;;;;;;;;;2222869;66;1096;-73
2022/04/25 15:00:15;;;;;;;;;;;;;;;;;;2221301;58;1275;-73
2022/04/25 15:02:48;;;;;;;;;;;;;;;;;;2223570;58;1753;-73
2022/04/25 15:05:22;;;;;;;;;;;;;;;;;;2221539;58;1285;-73
2022/04/25 15:07:55;;;;;;;;;;;;;;;;;;2218527;59;2584;-73
2022/04/25 15:10:31;;;;;;;;;;;;;;;;;;2218691;66;2210;-73
2022/04/25 15:13:04;;;;;;;;;;;;;;;;;;2221448;58;1408;-74
2022/04/25 15:15:38;;;;;;;;;;;;;;;;;;2222217;66;1206;-73
2022/04/25 15:18:11;;;;;;;;;;;;;;;;;;2221758;58;1728;-73
2022/04/25 15:20:45;;;;;;;;;;;;;;;;;;2220881;58;1786;-73
2022/04/25 15:23:18;;;;;;;;;;;;;;;;;;2221114;58;1740;-73
2022/04/25 15:25:55;;;;;;;;;;;;;;;;;;2219449;58;1253;-73
2022/04/25 15:28:28;;;;;;;;;;;;;;;;;;2221159;66;1924;-73
2022/04/25 15:31:01;;;;;;;;;;;;;;;;;;2221402;58;1533;-72
2022/04/25 15:33:34;;;;;;;;;;;;;;;;;;2220222;66;1247;-72
2022/04/25 15:36:07;;;;;;;;;;;;;;;;;;2223724;66;1203;-73
2022/04/25 15:38:41;;;;;;;;;;;;;;;;;;2222964;58;1215;-72
2022/04/25 15:41:16;;;;;;;;;;;;;;;;;;2220778;66;1164;-73
2022/04/25 15:43:50;;;;;;;;;;;;;;;;;;2220582;58;1889;-72
2022/04/25 15:46:23;;;;;;;;;;;;;;;;;;2219541;58;1114;-73
2022/04/25 15:48:56;;;;;;;;;;;;;;;;;;2222802;58;1927;-73
2022/04/25 15:51:29;;;;;;;;;;;;;;;;;;2223419;66;1239;-72
2022/04/25 15:59:43;;;;;;;;;;;;;;;;;;2220497;66;1008;-73
2022/04/25 16:02:16;;;;;;;;;;;;;;;;;;2220824;66;1187;-73
2022/04/25 16:04:49;;;;;;;;;;;;;;;;;;2221446;58;1601;-73
2022/04/25 16:07:23;;;;;;;;;;;;;;;;;;2221877;66;1252;-73
2022/04/25 16:09:56;;;;;;;;;;;;;;;;;;2220205;58;2551;-73
2022/04/25 16:12:32;;;;;;;;;;;;;;;;;;2222500;58;1300;-73
2022/04/25 16:15:06;;;;;;;;;;;;;;;;;;2221486;66;1213;-72
2022/04/25 16:17:39;;;;;;;;;;;;;;;;;;2223405;58;1267;-73
2022/04/25 16:20:12;;;;;;;;;;;;;;;;;;2223913;66;1104;-72
2022/04/25 16:22:47;;;;;;;;;;;;;;;;;;2220980;58;1692;-73
2022/04/25 16:25:22;;;;;;;;;;;;;;;;;;2220506;58;1158;-72
2022/04/25 16:27:58;;;;;;;;;;;;;;;;;;2220506;58;1930;-73
2022/04/25 16:30:32;;;;;;;;;;;;;;;;;;2222661;58;1509;-73
2022/04/25 16:33:05;;;;;;;;;;;;;;;;;;2220760;59;1300;-73
2022/04/25 16:35:39;;;;;;;;;;;;;;;;;;2223254;66;1254;-74
2022/04/25 16:38:13;;;;;;;;;;;;;;;;;;2221878;58;1778;-73
2022/04/25 16:40:46;;;;;;;;;;;;;;;;;;2219103;59;1730;-73
2022/04/25 16:43:22;;;;;;;;;;;;;;;;;;2221489;58;1562;-73
2022/04/25 16:45:56;;;;;;;;;;;;;;;;;;2220573;58;1191;-73
2022/04/25 16:48:29;;;;;;;;;;;;;;;;;;2221490;58;1932;-73
2022/04/25 16:51:02;;;;;;;;;;;;;;;;;;2221798;58;1115;-73
2022/04/25 16:53:35;;;;;;;;;;;;;;;;;;2222505;58;1239;-73
2022/04/25 16:56:09;;;;;;;;;;;;;;;;;;2222210;66;1200;-73
2022/04/25 16:58:44;;;;;;;;;;;;;;;;;;2222127;58;1279;-73
2022/04/25 17:01:18;;;;;;;;;;;;;;;;;;2222789;59;1359;-73
2022/04/25 17:03:51;;;;;;;;;;;;;;;;;;2221859;58;1867;-73
2022/04/25 17:06:25;;;;;;;;;;;;;;;;;;2222481;66;1248;-73
2022/04/25 17:08:59;;;;;;;;;;;;;;;;;;2222972;59;2524;-73
2022/04/25 17:11:32;;;;;;;;;;;;;;;;;;2221529;58;2612;-73
2022/04/25 17:14:08;;;;;;;;;;;;;;;;;;2222492;66;1285;-73
2022/04/25 17:16:41;;;;;;;;;;;;;;;;;;2222767;66;1211;-73
2022/04/25 17:19:15;;;;;;;;;;;;;;;;;;2222890;66;1342;-73
2022/04/25 17:21:50;;;;;;;;;;;;;;;;;;2223523;59;1273;-73
2022/04/25 17:24:23;;;;;;;;;;;;;;;;;;2220221;58;1729;-73
2022/04/25 17:26:56;;;;;;;;;;;;;;;;;;2221565;58;1257;-73
2022/04/25 17:29:32;;;;;;;;;;;;;;;;;;2221100;58;1931;-73
